createdAt,value
2019-03-08T00:01:37.787Z,38.70
2019-03-08T00:04:04.040Z,38.70
2019-03-08T00:08:58.224Z,38.70
2019-03-08T00:11:24.393Z,38.70
2019-03-08T00:13:50.800Z,38.80
2019-03-08T00:16:16.921Z,38.80
2019-03-08T00:18:42.964Z,38.80
2019-03-08T00:23:35.916Z,38.90
2019-03-08T00:26:01.967Z,38.90
2019-03-08T00:28:28.013Z,38.90
2019-03-08T00:30:54.105Z,38.90
2019-03-08T00:35:46.567Z,39.00
2019-03-08T00:38:12.763Z,39.00
2019-03-08T00:43:05.356Z,39.00
2019-03-08T00:45:31.404Z,39.00
2019-03-08T00:47:57.452Z,39.00
2019-03-08T00:50:23.532Z,39.00
2019-03-08T00:55:16.255Z,39.00
2019-03-08T01:00:16.451Z,39.10
2019-03-08T01:02:42.527Z,39.10
2019-03-08T01:10:06.832Z,39.20
2019-03-08T01:15:00.535Z,39.20
2019-03-08T01:17:26.723Z,39.20
2019-03-08T01:19:52.820Z,39.30
2019-03-08T01:22:19.200Z,39.20
2019-03-08T01:24:45.373Z,39.30
2019-03-08T01:27:11.448Z,39.30
2019-03-08T01:29:37.506Z,39.30
2019-03-08T01:32:05.476Z,39.30
2019-03-08T01:34:31.727Z,39.30
2019-03-08T01:36:57.772Z,39.30
2019-03-08T01:39:24.246Z,39.30
2019-03-08T01:41:50.371Z,39.50
2019-03-08T01:44:16.515Z,39.40
2019-03-08T01:46:42.904Z,39.40
2019-03-08T01:49:09.244Z,39.40
2019-03-08T01:51:35.455Z,39.40
2019-03-08T01:56:28.229Z,39.40
2019-03-08T01:58:54.307Z,39.50
2019-03-08T02:01:20.680Z,39.50
2019-03-08T02:03:46.827Z,39.50
2019-03-08T02:08:41.925Z,39.40
2019-03-08T02:11:09.109Z,39.50
2019-03-08T02:13:35.506Z,39.50
2019-03-08T02:16:01.832Z,39.50
2019-03-08T02:20:54.651Z,39.50
2019-03-08T02:23:20.733Z,39.50
2019-03-08T02:25:47.976Z,39.50
2019-03-08T02:28:14.167Z,39.50
2019-03-08T02:30:40.843Z,39.50
2019-03-08T02:33:07.168Z,39.50
2019-03-08T02:35:33.244Z,39.50
2019-03-08T02:37:59.619Z,39.50
2019-03-08T02:40:29.504Z,39.50
2019-03-08T02:42:58.656Z,39.50
2019-03-08T02:45:25.232Z,39.50
2019-03-08T02:47:51.595Z,39.50
2019-03-08T02:50:17.671Z,39.50
2019-03-08T02:52:43.738Z,39.50
2019-03-08T02:55:09.859Z,39.50
2019-03-08T02:57:35.939Z,39.50
2019-03-08T03:00:06.588Z,39.50
2019-03-08T03:04:59.087Z,39.50
2019-03-08T03:07:25.412Z,39.50
2019-03-08T03:12:18.200Z,39.40
2019-03-08T03:14:44.330Z,39.50
2019-03-08T03:17:10.871Z,39.50
2019-03-08T03:22:03.476Z,39.40
2019-03-08T03:24:29.815Z,39.50
2019-03-08T03:26:56.152Z,39.40
2019-03-08T03:29:22.331Z,39.50
2019-03-08T03:31:48.378Z,39.40
2019-03-08T03:34:14.827Z,39.40
2019-03-08T03:36:41.379Z,39.50
2019-03-08T03:41:34.383Z,39.50
2019-03-08T03:44:00.763Z,39.50
2019-03-08T03:46:26.851Z,39.50
2019-03-08T03:48:52.896Z,39.60
2019-03-08T03:51:18.942Z,39.50
2019-03-08T03:53:45.315Z,39.50
2019-03-08T03:56:11.362Z,39.60
2019-03-08T03:58:37.440Z,39.50
2019-03-08T04:01:05.420Z,39.50
2019-03-08T04:05:58.457Z,39.60
2019-03-08T04:08:24.510Z,39.60
2019-03-08T04:10:51.421Z,39.60
2019-03-08T04:13:17.484Z,39.60
2019-03-08T04:15:43.959Z,39.60
2019-03-08T04:18:10.057Z,39.60
2019-03-08T04:20:37.101Z,39.60
2019-03-08T04:23:03.179Z,39.60
2019-03-08T04:25:29.320Z,39.60
2019-03-08T04:27:55.723Z,39.60
2019-03-08T04:30:22.156Z,39.60
2019-03-08T04:32:48.200Z,39.60
2019-03-08T04:35:14.593Z,39.60
2019-03-08T04:40:09.741Z,39.60
2019-03-08T04:42:36.265Z,39.60
2019-03-08T04:45:04.641Z,39.60
2019-03-08T04:47:31.197Z,39.60
2019-03-08T04:49:57.607Z,39.60
2019-03-08T04:52:23.661Z,39.60
2019-03-08T04:54:49.739Z,39.60
2019-03-08T04:57:15.786Z,39.60
2019-03-08T05:02:08.293Z,39.50
2019-03-08T05:04:34.935Z,39.50
2019-03-08T05:07:01.017Z,39.40
2019-03-08T05:14:19.928Z,39.30
2019-03-08T05:16:46.045Z,39.30
2019-03-08T05:19:12.091Z,39.30
2019-03-08T05:21:38.138Z,39.30
2019-03-08T05:24:05.712Z,39.30
2019-03-08T05:26:31.760Z,39.30
2019-03-08T05:28:57.835Z,39.30
2019-03-08T05:31:23.884Z,39.20
2019-03-08T05:33:49.966Z,39.20
2019-03-08T05:41:09.733Z,39.20
2019-03-08T05:43:36.143Z,39.20
2019-03-08T05:46:02.187Z,39.10
2019-03-08T05:48:28.602Z,39.10
2019-03-08T05:50:54.654Z,39.10
2019-03-08T05:53:20.731Z,39.10
2019-03-08T05:55:46.779Z,39.10
2019-03-08T05:58:12.824Z,39.20
2019-03-08T06:00:39.224Z,39.10
2019-03-08T06:03:05.571Z,39.10
2019-03-08T06:05:31.719Z,39.10
2019-03-08T06:07:57.792Z,39.10
2019-03-08T06:10:31.034Z,39.20
2019-03-08T06:12:59.018Z,39.20
2019-03-08T06:15:25.827Z,39.10
2019-03-08T06:17:53.105Z,39.10
2019-03-08T06:20:19.335Z,39.10
2019-03-08T06:22:45.454Z,39.20
2019-03-08T06:25:12.679Z,39.10
2019-03-08T06:27:38.925Z,39.20
2019-03-08T06:30:08.096Z,39.10
2019-03-08T06:37:28.935Z,39.10
2019-03-08T06:39:55.017Z,39.10
2019-03-08T06:42:21.392Z,39.10
2019-03-08T06:44:47.464Z,39.20
2019-03-08T06:47:13.828Z,39.20
2019-03-08T06:49:40.160Z,39.20
2019-03-08T06:52:06.249Z,39.20
2019-03-08T06:54:32.920Z,39.20
2019-03-08T06:56:59.005Z,39.30
2019-03-08T06:59:27.223Z,39.30
2019-03-08T07:01:53.313Z,39.40
2019-03-08T07:04:19.439Z,39.40
2019-03-08T07:06:45.484Z,39.50
2019-03-08T07:09:11.528Z,39.50
2019-03-08T07:11:37.604Z,39.50
2019-03-08T07:14:04.066Z,39.70
2019-03-08T07:18:56.725Z,39.70
2019-03-08T07:21:24.671Z,39.70
2019-03-08T07:23:52.624Z,39.80
2019-03-08T07:26:32.851Z,39.80
2019-03-08T07:29:04.677Z,39.80
2019-03-08T07:31:35.612Z,39.80
2019-03-08T07:34:10.988Z,39.80
2019-03-08T07:36:45.277Z,39.90
2019-03-08T07:39:33.684Z,40.00
2019-03-08T07:42:04.445Z,39.90
2019-03-08T07:47:03.673Z,40.00
2019-03-08T07:49:46.612Z,39.90
2019-03-08T07:52:14.559Z,40.00
2019-03-08T07:54:42.852Z,40.00
2019-03-08T07:57:25.852Z,40.00
2019-03-08T07:59:54.535Z,40.00
2019-03-08T08:02:22.487Z,40.00
2019-03-08T08:04:52.936Z,39.90
2019-03-08T08:07:20.916Z,40.00
2019-03-08T08:10:00.954Z,40.00
2019-03-08T08:12:45.508Z,40.10
2019-03-08T08:15:14.295Z,40.10
2019-03-08T08:17:54.761Z,40.00
2019-03-08T08:20:28.997Z,40.00
2019-03-08T08:22:56.981Z,40.00
2019-03-08T08:25:37.013Z,40.00
2019-03-08T08:28:05.271Z,40.00
2019-03-08T08:30:36.142Z,40.00
2019-03-08T08:33:22.504Z,40.00
2019-03-08T08:38:21.525Z,40.70
2019-03-08T08:46:00.929Z,38.00
2019-03-08T08:48:28.908Z,38.10
2019-03-08T08:51:08.512Z,39.10
2019-03-08T08:53:53.456Z,39.50
2019-03-08T08:56:30.558Z,39.10
2019-03-08T08:58:58.915Z,39.20
2019-03-08T09:01:43.309Z,39.30
2019-03-08T09:06:45.708Z,39.40
2019-03-08T09:09:19.667Z,39.40
2019-03-08T09:11:52.400Z,39.40
2019-03-08T09:16:49.669Z,39.50
2019-03-08T09:19:17.989Z,39.60
2019-03-08T09:22:03.673Z,39.50
2019-03-08T09:24:37.647Z,39.60
2019-03-08T09:27:08.929Z,39.70
2019-03-08T09:29:52.135Z,39.80
2019-03-08T09:32:23.452Z,39.80
2019-03-08T09:34:51.396Z,39.90
2019-03-08T09:37:31.723Z,40.10
2019-03-08T09:40:16.248Z,40.10
2019-03-08T09:43:00.724Z,40.20
2019-03-08T09:45:29.173Z,40.00
2019-03-08T09:48:13.307Z,40.00
2019-03-08T09:51:00.801Z,40.10
2019-03-08T09:53:32.037Z,40.10
2019-03-08T09:56:03.759Z,40.20
2019-03-08T09:58:32.209Z,40.20
2019-03-08T10:01:04.436Z,40.20
2019-03-08T10:03:32.389Z,40.30
2019-03-08T10:06:00.336Z,40.10
2019-03-08T10:08:28.324Z,40.20
2019-03-08T10:11:14.672Z,40.70
2019-03-08T10:13:45.387Z,40.00
2019-03-08T10:16:13.339Z,39.90
2019-03-08T10:18:47.537Z,39.90
2019-03-08T10:21:32.289Z,39.90
2019-03-08T10:24:12.108Z,39.70
2019-03-08T10:26:40.095Z,39.80
2019-03-08T10:29:26.098Z,39.80
2019-03-08T10:31:54.324Z,39.90
2019-03-08T10:34:25.845Z,39.90
2019-03-08T10:37:10.383Z,40.00
2019-03-08T10:42:21.687Z,39.70
2019-03-08T10:44:50.075Z,39.90
2019-03-08T10:47:18.375Z,39.90
2019-03-08T10:49:55.404Z,39.90
2019-03-08T10:52:30.875Z,39.80
2019-03-08T10:55:15.343Z,39.90
2019-03-08T11:00:15.640Z,39.90
2019-03-08T11:02:49.308Z,39.70
2019-03-08T11:08:09.040Z,39.70
2019-03-08T11:10:38.371Z,39.80
2019-03-08T11:13:22.909Z,39.70
2019-03-08T11:16:07.440Z,39.80
2019-03-08T11:18:35.420Z,39.70
2019-03-08T11:21:06.680Z,39.50
2019-03-08T11:23:47.157Z,39.70
2019-03-08T11:26:15.435Z,39.80
2019-03-08T11:28:49.264Z,39.80
2019-03-08T11:31:23.248Z,39.90
2019-03-08T11:33:51.242Z,39.80
2019-03-08T11:36:19.489Z,39.90
2019-03-08T11:38:49.995Z,39.90
2019-03-08T11:41:18.063Z,39.80
2019-03-08T11:43:52.404Z,39.90
2019-03-08T11:49:06.589Z,39.80
2019-03-08T11:51:50.780Z,39.90
2019-03-08T11:54:25.032Z,39.80
2019-03-08T11:56:56.437Z,39.50
2019-03-08T11:59:23.187Z,39.70
2019-03-08T12:02:07.736Z,39.50
2019-03-08T12:04:52.541Z,39.60
2019-03-08T12:07:26.568Z,39.50
2019-03-08T12:10:11.416Z,39.60
2019-03-08T12:15:32.848Z,39.60
2019-03-08T12:18:18.616Z,39.60
2019-03-08T12:20:46.639Z,39.60
2019-03-08T12:23:23.784Z,39.60
2019-03-08T12:26:08.006Z,39.60
2019-03-08T12:28:38.985Z,38.50
2019-03-08T12:36:23.157Z,39.20
2019-03-08T12:38:51.361Z,39.30
2019-03-08T12:41:22.088Z,39.40
2019-03-08T12:46:35.503Z,39.60
2019-03-08T12:49:09.314Z,39.60
2019-03-08T12:51:37.263Z,39.70
2019-03-08T12:54:08.288Z,39.60
2019-03-08T12:56:36.252Z,39.60
2019-03-08T12:59:16.549Z,39.50
2019-03-08T13:02:01.099Z,39.50
2019-03-08T13:07:14.164Z,39.20
2019-03-08T13:09:49.238Z,39.50
2019-03-08T13:12:15.707Z,39.70
2019-03-08T13:14:41.920Z,39.80
2019-03-08T13:19:34.920Z,40.00
2019-03-08T13:22:01.332Z,40.00
2019-03-08T13:29:21.372Z,39.60
2019-03-08T13:34:13.994Z,39.60
2019-03-08T13:36:40.339Z,39.60
2019-03-08T13:44:00.790Z,39.60
2019-03-08T13:46:28.934Z,39.60
2019-03-08T13:48:55.263Z,40.20
2019-03-08T13:51:22.001Z,39.70
2019-03-08T13:53:48.900Z,39.70
2019-03-08T13:58:41.808Z,39.70
2019-03-08T14:01:07.860Z,39.70
2019-03-08T14:06:00.695Z,39.90
2019-03-08T14:08:27.539Z,39.80
2019-03-08T14:10:53.868Z,39.80
2019-03-08T14:13:21.333Z,39.80
2019-03-08T14:18:14.856Z,39.90
2019-03-08T14:20:41.236Z,39.80
2019-03-08T14:23:07.296Z,39.70
2019-03-08T14:25:33.503Z,39.70
2019-03-08T14:27:59.558Z,39.70
2019-03-08T14:30:31.956Z,39.70
2019-03-08T14:32:58.099Z,39.60
2019-03-08T14:35:26.148Z,39.70
2019-03-08T14:37:56.048Z,39.70
2019-03-08T14:40:23.855Z,39.70
2019-03-08T14:42:58.276Z,39.70
2019-03-08T14:45:29.318Z,39.70
2019-03-08T14:47:55.868Z,39.60
2019-03-08T14:50:22.283Z,39.70
2019-03-08T14:52:48.323Z,39.90
2019-03-08T14:55:14.373Z,39.80
2019-03-08T15:02:35.280Z,39.80
2019-03-08T15:05:10.655Z,39.70
2019-03-08T15:07:29.974Z,39.80
2019-03-08T15:09:56.096Z,39.80
2019-03-08T15:12:22.155Z,39.80
2019-03-08T15:14:48.900Z,39.80
2019-03-08T15:17:16.814Z,39.70
2019-03-08T15:19:42.991Z,39.90
2019-03-08T15:22:09.164Z,39.70
2019-03-08T15:24:38.513Z,39.90
2019-03-08T15:27:04.649Z,39.90
2019-03-08T15:29:31.762Z,39.90
2019-03-08T15:31:58.193Z,40.10
2019-03-08T15:36:50.708Z,40.10
2019-03-08T15:39:17.456Z,40.20
2019-03-08T15:41:43.580Z,40.20
2019-03-08T15:44:09.640Z,40.20
2019-03-08T15:46:36.780Z,40.50
2019-03-08T15:49:03.193Z,40.40
2019-03-08T15:51:29.541Z,40.60
2019-03-08T15:53:55.972Z,40.60
2019-03-08T15:56:22.025Z,40.70
2019-03-08T15:58:48.424Z,40.60
2019-03-08T16:01:14.467Z,40.80
2019-03-08T16:03:40.717Z,41.10
2019-03-08T16:06:07.538Z,41.30
2019-03-08T16:08:35.732Z,41.40
2019-03-08T16:11:01.963Z,41.80
2019-03-08T16:13:28.353Z,41.50
2019-03-08T16:15:54.635Z,41.10
2019-03-08T16:18:21.723Z,41.20
2019-03-08T16:20:47.836Z,41.30
2019-03-08T16:23:14.288Z,41.80
2019-03-08T16:25:46.721Z,41.50
2019-03-08T16:28:10.647Z,41.60
2019-03-08T16:30:43.711Z,41.50
2019-03-08T16:33:33.592Z,41.30
2019-03-08T16:38:39.163Z,41.20
2019-03-08T16:41:19.343Z,41.10
2019-03-08T16:46:27.372Z,41.10
2019-03-08T16:48:59.301Z,41.00
2019-03-08T16:51:36.201Z,41.00
2019-03-08T16:54:04.848Z,40.90
2019-03-08T16:56:44.808Z,40.90
2019-03-08T16:59:29.104Z,40.90
2019-03-08T17:01:59.887Z,40.80
2019-03-08T17:04:27.908Z,41.40
2019-03-08T17:07:07.788Z,40.80
2019-03-08T17:09:38.573Z,40.70
2019-03-08T17:12:23.620Z,40.60
2019-03-08T17:14:51.569Z,40.60
2019-03-08T17:17:28.657Z,40.70
2019-03-08T17:20:02.713Z,40.70
2019-03-08T17:22:36.519Z,40.90
2019-03-08T17:25:12.843Z,40.90
2019-03-08T17:30:24.111Z,41.10
2019-03-08T17:35:35.179Z,41.30
2019-03-08T17:38:05.904Z,41.50
2019-03-08T17:40:50.755Z,41.30
2019-03-08T17:43:19.500Z,41.30
2019-03-08T17:48:49.139Z,40.30
2019-03-08T17:51:33.621Z,40.20
2019-03-08T17:54:07.355Z,40.00
2019-03-08T17:56:35.372Z,39.30
2019-03-08T18:01:50.799Z,37.70
2019-03-08T18:04:24.431Z,37.30
2019-03-08T18:09:24.393Z,38.40
2019-03-08T18:11:52.348Z,36.80
2019-03-08T18:14:36.821Z,36.80
2019-03-08T18:17:21.896Z,36.70
2019-03-08T18:19:49.903Z,37.10
2019-03-08T18:22:35.797Z,37.60
2019-03-08T18:25:08.425Z,39.50
2019-03-08T18:27:42.840Z,39.80
2019-03-08T18:30:19.999Z,40.60
2019-03-08T18:32:54.080Z,40.80
2019-03-08T18:35:39.919Z,41.00
2019-03-08T18:38:11.173Z,40.90
2019-03-08T18:43:34.051Z,41.00
2019-03-08T18:46:18.907Z,40.90
2019-03-08T18:48:55.880Z,40.90
2019-03-08T18:53:54.979Z,40.30
2019-03-08T18:56:25.973Z,40.40
2019-03-08T18:59:03.120Z,40.40
2019-03-08T19:04:02.630Z,40.10
2019-03-08T19:06:30.663Z,40.20
2019-03-08T19:14:33.231Z,40.50
2019-03-08T19:22:26.291Z,40.70
2019-03-08T19:24:54.150Z,40.30
2019-03-08T19:27:34.500Z,40.20
2019-03-08T19:33:02.595Z,40.90
2019-03-08T19:35:49.120Z,40.40
2019-03-08T19:38:17.135Z,40.60
2019-03-08T19:40:45.152Z,40.30
2019-03-08T19:43:26.519Z,40.40
2019-03-08T19:48:41.395Z,40.50
2019-03-08T19:51:18.628Z,40.40
2019-03-08T19:54:04.596Z,40.40
2019-03-08T19:56:35.735Z,40.40
2019-03-08T20:04:18.120Z,40.40
2019-03-08T20:14:38.207Z,40.30
2019-03-08T20:22:19.017Z,40.50
2019-03-08T20:24:49.885Z,40.30
2019-03-08T20:29:52.393Z,40.50
2019-03-08T20:32:20.718Z,40.40
2019-03-08T20:35:04.959Z,39.70
2019-03-08T20:37:33.417Z,40.00
2019-03-08T20:40:03.815Z,40.20
2019-03-08T20:42:34.468Z,40.30
2019-03-08T20:45:02.921Z,40.40
2019-03-08T20:49:58.324Z,40.40
2019-03-08T20:52:24.515Z,40.40
2019-03-08T20:57:17.514Z,40.30
2019-03-08T21:07:05.243Z,40.30
2019-03-08T21:14:24.388Z,40.40
2019-03-08T21:16:50.519Z,40.40
2019-03-08T21:26:37.681Z,40.40
2019-03-08T21:43:44.075Z,40.30
2019-03-08T21:55:58.079Z,40.40
2019-03-08T21:58:24.446Z,40.40
2019-03-08T22:00:50.491Z,40.40
2019-03-08T22:03:16.603Z,40.40
2019-03-08T22:08:16.868Z,40.30
2019-03-08T22:13:05.650Z,40.30
2019-03-08T22:15:32.036Z,40.20
2019-03-08T22:17:58.076Z,40.30
2019-03-08T22:20:24.171Z,40.20
2019-03-08T22:22:50.258Z,40.40
2019-03-08T22:25:16.636Z,40.20
2019-03-08T22:27:42.723Z,40.30
2019-03-08T22:30:15.615Z,40.30
2019-03-08T22:32:41.704Z,40.30
2019-03-08T22:37:34.837Z,40.30
2019-03-08T22:40:01.177Z,40.30
2019-03-08T22:47:20.111Z,40.20
2019-03-08T22:57:06.044Z,40.20
2019-03-08T23:02:06.976Z,40.40
2019-03-08T23:06:59.508Z,40.30
2019-03-08T23:09:25.556Z,40.30
2019-03-08T23:11:53.087Z,40.30
2019-03-08T23:14:19.135Z,40.20
2019-03-08T23:19:11.737Z,40.30
2019-03-08T23:24:04.828Z,40.30
2019-03-08T23:26:32.820Z,40.30
2019-03-08T23:29:03.328Z,40.30
2019-03-08T23:31:34.485Z,40.30
2019-03-08T23:36:28.880Z,40.40
2019-03-08T23:38:55.310Z,40.40
2019-03-08T23:41:21.383Z,40.40
2019-03-08T23:43:47.755Z,40.50
2019-03-08T23:46:14.088Z,40.50
2019-03-08T23:48:40.145Z,40.50
2019-03-08T23:55:59.043Z,40.60
2019-03-08T23:58:25.128Z,40.60
